sensor_id;sensor_type;location;lat;lon;timestamp;temperature;humidity
26803;DHT22;14378;51.796;5.808;2023-11-19T00:00:20;13.80;99.90
26803;DHT22;14378;51.796;5.808;2023-11-19T00:02:21;13.80;99.90
26803;DHT22;14378;51.796;5.808;2023-11-19T00:04:22;13.80;99.90
26803;DHT22;14378;51.796;5.808;2023-11-19T00:06:23;13.90;99.90
26803;DHT22;14378;51.796;5.808;2023-11-19T00:08:26;13.80;99.90
26803;DHT22;14378;51.796;5.808;2023-11-19T00:10:30;13.80;99.90
26803;DHT22;14378;51.796;5.808;2023-11-19T00:12:31;13.80;99.90
26803;DHT22;14378;51.796;5.808;2023-11-19T00:14:32;13.90;99.90
26803;DHT22;14378;51.796;5.808;2023-11-19T00:16:33;13.90;99.90
26803;DHT22;14378;51.796;5.808;2023-11-19T00:18:33;13.90;99.90
26803;DHT22;14378;51.796;5.808;2023-11-19T00:20:34;13.90;99.90
26803;DHT22;14378;51.796;5.808;2023-11-19T00:22:35;13.90;99.90
26803;DHT22;14378;51.796;5.808;2023-11-19T00:24:36;13.90;99.90
26803;DHT22;14378;51.796;5.808;2023-11-19T00:26:37;13.90;99.90
26803;DHT22;14378;51.796;5.808;2023-11-19T00:28:38;14.00;99.90
26803;DHT22;14378;51.796;5.808;2023-11-19T00:30:39;14.00;99.90
26803;DHT22;14378;51.796;5.808;2023-11-19T00:32:42;14.00;99.90
26803;DHT22;14378;51.796;5.808;2023-11-19T00:34:45;13.90;99.90
26803;DHT22;14378;51.796;5.808;2023-11-19T00:36:48;14.00;99.90
26803;DHT22;14378;51.796;5.808;2023-11-19T00:38:50;14.00;99.90
26803;DHT22;14378;51.796;5.808;2023-11-19T00:40:50;14.00;99.90
26803;DHT22;14378;51.796;5.808;2023-11-19T00:42:52;14.00;99.90
26803;DHT22;14378;51.796;5.808;2023-11-19T00:44:53;14.00;99.90
26803;DHT22;14378;51.796;5.808;2023-11-19T00:46:53;14.00;99.90
26803;DHT22;14378;51.796;5.808;2023-11-19T00:48:54;14.00;99.90
26803;DHT22;14378;51.796;5.808;2023-11-19T00:50:55;14.00;99.90
26803;DHT22;14378;51.796;5.808;2023-11-19T00:52:57;14.00;99.90
26803;DHT22;14378;51.796;5.808;2023-11-19T00:54:57;14.00;99.90
26803;DHT22;14378;51.796;5.808;2023-11-19T00:56:58;14.00;99.90
26803;DHT22;14378;51.796;5.808;2023-11-19T00:58:59;14.00;99.90
26803;DHT22;14378;51.796;5.808;2023-11-19T01:01:00;14.00;99.90
26803;DHT22;14378;51.796;5.808;2023-11-19T01:03:01;14.00;99.90
26803;DHT22;14378;51.796;5.808;2023-11-19T01:05:02;14.10;99.90
26803;DHT22;14378;51.796;5.808;2023-11-19T01:07:03;14.10;99.90
26803;DHT22;14378;51.796;5.808;2023-11-19T01:09:04;14.10;99.90
26803;DHT22;14378;51.796;5.808;2023-11-19T01:11:06;14.10;99.90
26803;DHT22;14378;51.796;5.808;2023-11-19T01:13:06;14.10;99.90
26803;DHT22;14378;51.796;5.808;2023-11-19T01:15:08;14.10;99.90
26803;DHT22;14378;51.796;5.808;2023-11-19T01:17:09;14.10;99.90
26803;DHT22;14378;51.796;5.808;2023-11-19T01:19:09;14.10;99.90
26803;DHT22;14378;51.796;5.808;2023-11-19T01:21:12;14.10;99.90
26803;DHT22;14378;51.796;5.808;2023-11-19T01:23:13;14.10;99.90
26803;DHT22;14378;51.796;5.808;2023-11-19T01:25:14;14.10;99.90
26803;DHT22;14378;51.796;5.808;2023-11-19T01:27:15;14.00;99.90
26803;DHT22;14378;51.796;5.808;2023-11-19T01:29:16;14.10;99.90
26803;DHT22;14378;51.796;5.808;2023-11-19T01:31:18;14.10;99.90
26803;DHT22;14378;51.796;5.808;2023-11-19T01:33:20;14.00;99.90
26803;DHT22;14378;51.796;5.808;2023-11-19T01:35:22;14.00;99.90
26803;DHT22;14378;51.796;5.808;2023-11-19T01:37:24;14.00;99.90
26803;DHT22;14378;51.796;5.808;2023-11-19T01:39:24;14.10;99.90
26803;DHT22;14378;51.796;5.808;2023-11-19T01:41:27;14.10;99.90
26803;DHT22;14378;51.796;5.808;2023-11-19T01:43:36;14.10;99.90
26803;DHT22;14378;51.796;5.808;2023-11-19T01:45:39;14.00;99.90
26803;DHT22;14378;51.796;5.808;2023-11-19T01:47:41;14.10;99.90
26803;DHT22;14378;51.796;5.808;2023-11-19T01:49:42;14.10;99.90
26803;DHT22;14378;51.796;5.808;2023-11-19T01:51:43;14.10;99.90
26803;DHT22;14378;51.796;5.808;2023-11-19T01:53:44;14.10;99.90
26803;DHT22;14378;51.796;5.808;2023-11-19T01:55:47;14.10;99.90
26803;DHT22;14378;51.796;5.808;2023-11-19T01:57:49;14.10;99.90
26803;DHT22;14378;51.796;5.808;2023-11-19T01:59:51;14.10;99.90
26803;DHT22;14378;51.796;5.808;2023-11-19T02:01:54;14.10;99.90
26803;DHT22;14378;51.796;5.808;2023-11-19T02:03:55;14.10;99.90
26803;DHT22;14378;51.796;5.808;2023-11-19T02:05:59;14.10;99.90
26803;DHT22;14378;51.796;5.808;2023-11-19T02:08:01;14.10;99.90
26803;DHT22;14378;51.796;5.808;2023-11-19T02:10:02;14.10;99.90
26803;DHT22;14378;51.796;5.808;2023-11-19T02:12:03;14.10;99.90
26803;DHT22;14378;51.796;5.808;2023-11-19T02:14:04;14.10;99.90
26803;DHT22;14378;51.796;5.808;2023-11-19T02:16:05;14.10;99.90
26803;DHT22;14378;51.796;5.808;2023-11-19T02:18:26;14.10;99.90
26803;DHT22;14378;51.796;5.808;2023-11-19T02:20:30;14.10;99.90
26803;DHT22;14378;51.796;5.808;2023-11-19T02:22:31;14.10;99.90
26803;DHT22;14378;51.796;5.808;2023-11-19T02:24:32;14.10;99.90
26803;DHT22;14378;51.796;5.808;2023-11-19T02:26:54;14.10;99.90
26803;DHT22;14378;51.796;5.808;2023-11-19T02:28:59;14.10;99.90
26803;DHT22;14378;51.796;5.808;2023-11-19T02:31:00;14.10;99.90
26803;DHT22;14378;51.796;5.808;2023-11-19T02:33:02;14.10;99.90
26803;DHT22;14378;51.796;5.808;2023-11-19T02:35:06;14.10;99.90
26803;DHT22;14378;51.796;5.808;2023-11-19T02:37:08;14.00;99.90
26803;DHT22;14378;51.796;5.808;2023-11-19T02:39:11;14.00;99.90
26803;DHT22;14378;51.796;5.808;2023-11-19T02:41:14;14.00;99.90
26803;DHT22;14378;51.796;5.808;2023-11-19T02:43:15;14.00;99.90
26803;DHT22;14378;51.796;5.808;2023-11-19T02:45:16;13.90;99.90
26803;DHT22;14378;51.796;5.808;2023-11-19T02:47:17;13.90;99.90
26803;DHT22;14378;51.796;5.808;2023-11-19T02:49:20;13.90;99.90
26803;DHT22;14378;51.796;5.808;2023-11-19T02:51:21;13.90;99.90
26803;DHT22;14378;51.796;5.808;2023-11-19T02:53:22;13.90;99.90
26803;DHT22;14378;51.796;5.808;2023-11-19T02:55:24;13.90;99.90
26803;DHT22;14378;51.796;5.808;2023-11-19T02:57:25;14.00;99.90
26803;DHT22;14378;51.796;5.808;2023-11-19T02:59:31;13.90;99.90
26803;DHT22;14378;51.796;5.808;2023-11-19T03:01:39;13.90;99.90
26803;DHT22;14378;51.796;5.808;2023-11-19T03:03:44;13.90;99.90
26803;DHT22;14378;51.796;5.808;2023-11-19T03:05:50;13.80;99.90
26803;DHT22;14378;51.796;5.808;2023-11-19T03:07:51;13.80;99.90
26803;DHT22;14378;51.796;5.808;2023-11-19T03:09:52;13.80;99.90
26803;DHT22;14378;51.796;5.808;2023-11-19T03:11:55;13.70;99.90
26803;DHT22;14378;51.796;5.808;2023-11-19T03:13:56;13.70;99.90
26803;DHT22;14378;51.796;5.808;2023-11-19T03:15:56;13.70;99.90
26803;DHT22;14378;51.796;5.808;2023-11-19T03:17:58;13.70;99.90
26803;DHT22;14378;51.796;5.808;2023-11-19T03:19:59;13.60;99.90
26803;DHT22;14378;51.796;5.808;2023-11-19T03:22:01;13.60;99.90
26803;DHT22;14378;51.796;5.808;2023-11-19T03:24:03;13.60;99.90
26803;DHT22;14378;51.796;5.808;2023-11-19T03:26:04;13.60;99.90
26803;DHT22;14378;51.796;5.808;2023-11-19T03:28:06;13.50;99.90
26803;DHT22;14378;51.796;5.808;2023-11-19T03:30:10;13.40;99.90
26803;DHT22;14378;51.796;5.808;2023-11-19T03:32:11;13.40;99.90
26803;DHT22;14378;51.796;5.808;2023-11-19T03:34:12;13.40;99.90
26803;DHT22;14378;51.796;5.808;2023-11-19T03:36:13;13.40;99.90
26803;DHT22;14378;51.796;5.808;2023-11-19T03:38:14;13.40;99.90
26803;DHT22;14378;51.796;5.808;2023-11-19T03:40:15;13.30;99.90
26803;DHT22;14378;51.796;5.808;2023-11-19T03:42:16;13.30;99.90
26803;DHT22;14378;51.796;5.808;2023-11-19T03:44:17;13.30;99.90
26803;DHT22;14378;51.796;5.808;2023-11-19T03:46:20;13.20;99.90
26803;DHT22;14378;51.796;5.808;2023-11-19T03:48:22;13.20;99.90
26803;DHT22;14378;51.796;5.808;2023-11-19T03:50:23;13.20;99.90
26803;DHT22;14378;51.796;5.808;2023-11-19T03:52:24;13.10;99.90
26803;DHT22;14378;51.796;5.808;2023-11-19T03:54:25;13.10;99.90
26803;DHT22;14378;51.796;5.808;2023-11-19T03:56:28;13.10;99.90
26803;DHT22;14378;51.796;5.808;2023-11-19T03:58:29;13.10;99.90
26803;DHT22;14378;51.796;5.808;2023-11-19T04:00:30;13.00;99.90
26803;DHT22;14378;51.796;5.808;2023-11-19T04:02:31;13.00;99.90
26803;DHT22;14378;51.796;5.808;2023-11-19T04:04:33;13.00;99.90
26803;DHT22;14378;51.796;5.808;2023-11-19T04:06:34;12.90;99.90
26803;DHT22;14378;51.796;5.808;2023-11-19T04:08:35;12.90;99.90
26803;DHT22;14378;51.796;5.808;2023-11-19T04:10:36;12.90;99.90
26803;DHT22;14378;51.796;5.808;2023-11-19T04:12:37;12.90;99.90
26803;DHT22;14378;51.796;5.808;2023-11-19T04:14:38;12.80;99.90
26803;DHT22;14378;51.796;5.808;2023-11-19T04:16:40;12.80;99.90
26803;DHT22;14378;51.796;5.808;2023-11-19T04:18:41;12.70;99.90
26803;DHT22;14378;51.796;5.808;2023-11-19T04:20:42;12.70;99.90
26803;DHT22;14378;51.796;5.808;2023-11-19T04:22:43;12.70;99.90
26803;DHT22;14378;51.796;5.808;2023-11-19T04:24:44;12.70;99.90
26803;DHT22;14378;51.796;5.808;2023-11-19T04:26:46;12.70;99.90
26803;DHT22;14378;51.796;5.808;2023-11-19T04:28:47;12.70;99.90
26803;DHT22;14378;51.796;5.808;2023-11-19T04:30:50;12.70;99.90
26803;DHT22;14378;51.796;5.808;2023-11-19T04:32:51;12.70;99.90
26803;DHT22;14378;51.796;5.808;2023-11-19T04:34:52;12.60;99.90
26803;DHT22;14378;51.796;5.808;2023-11-19T04:36:53;12.50;99.90
26803;DHT22;14378;51.796;5.808;2023-11-19T04:38:55;12.50;99.90
26803;DHT22;14378;51.796;5.808;2023-11-19T04:40:56;12.50;99.90
26803;DHT22;14378;51.796;5.808;2023-11-19T04:42:57;12.50;99.90
26803;DHT22;14378;51.796;5.808;2023-11-19T04:44:58;12.50;99.90
26803;DHT22;14378;51.796;5.808;2023-11-19T04:46:59;12.50;99.90
26803;DHT22;14378;51.796;5.808;2023-11-19T04:49:01;12.50;99.90
26803;DHT22;14378;51.796;5.808;2023-11-19T04:51:05;12.50;99.90
26803;DHT22;14378;51.796;5.808;2023-11-19T04:53:06;12.40;99.90
26803;DHT22;14378;51.796;5.808;2023-11-19T04:55:07;12.40;99.90
26803;DHT22;14378;51.796;5.808;2023-11-19T04:57:09;12.40;99.90
26803;DHT22;14378;51.796;5.808;2023-11-19T04:59:12;12.40;99.90
26803;DHT22;14378;51.796;5.808;2023-11-19T05:01:14;12.40;99.90
26803;DHT22;14378;51.796;5.808;2023-11-19T05:03:18;12.30;99.90
26803;DHT22;14378;51.796;5.808;2023-11-19T05:05:19;12.30;99.90
26803;DHT22;14378;51.796;5.808;2023-11-19T05:07:21;12.30;99.90
26803;DHT22;14378;51.796;5.808;2023-11-19T05:09:21;12.30;99.90
26803;DHT22;14378;51.796;5.808;2023-11-19T05:11:22;12.30;99.90
26803;DHT22;14378;51.796;5.808;2023-11-19T05:13:23;12.30;99.90
26803;DHT22;14378;51.796;5.808;2023-11-19T05:15:24;12.30;99.90
26803;DHT22;14378;51.796;5.808;2023-11-19T05:17:25;12.30;99.90
26803;DHT22;14378;51.796;5.808;2023-11-19T05:19:26;12.30;99.90
26803;DHT22;14378;51.796;5.808;2023-11-19T05:21:30;12.20;99.90
26803;DHT22;14378;51.796;5.808;2023-11-19T05:23:31;12.20;99.90
26803;DHT22;14378;51.796;5.808;2023-11-19T05:25:32;12.20;99.90
26803;DHT22;14378;51.796;5.808;2023-11-19T05:27:32;12.20;99.90
26803;DHT22;14378;51.796;5.808;2023-11-19T05:29:33;12.20;99.90
26803;DHT22;14378;51.796;5.808;2023-11-19T05:31:34;12.20;99.90
26803;DHT22;14378;51.796;5.808;2023-11-19T05:33:35;12.10;99.90
26803;DHT22;14378;51.796;5.808;2023-11-19T05:35:37;12.10;99.90
26803;DHT22;14378;51.796;5.808;2023-11-19T05:37:38;12.10;99.90
26803;DHT22;14378;51.796;5.808;2023-11-19T05:39:38;12.20;99.90
26803;DHT22;14378;51.796;5.808;2023-11-19T05:41:39;12.10;99.90
26803;DHT22;14378;51.796;5.808;2023-11-19T05:43:40;12.20;99.90
26803;DHT22;14378;51.796;5.808;2023-11-19T05:45:42;12.20;99.90
26803;DHT22;14378;51.796;5.808;2023-11-19T05:47:44;12.20;99.90
26803;DHT22;14378;51.796;5.808;2023-11-19T05:49:45;12.10;99.90
26803;DHT22;14378;51.796;5.808;2023-11-19T05:51:46;12.10;99.90
26803;DHT22;14378;51.796;5.808;2023-11-19T05:53:46;12.10;99.90
26803;DHT22;14378;51.796;5.808;2023-11-19T05:55:47;12.20;99.90
26803;DHT22;14378;51.796;5.808;2023-11-19T05:57:55;12.10;99.90
26803;DHT22;14378;51.796;5.808;2023-11-19T05:59:56;12.10;99.90
26803;DHT22;14378;51.796;5.808;2023-11-19T06:01:57;12.10;99.90
26803;DHT22;14378;51.796;5.808;2023-11-19T06:03:58;12.10;99.90
26803;DHT22;14378;51.796;5.808;2023-11-19T06:05:59;12.20;99.90
26803;DHT22;14378;51.796;5.808;2023-11-19T06:08:00;12.10;99.90
26803;DHT22;14378;51.796;5.808;2023-11-19T06:10:02;12.10;99.90
26803;DHT22;14378;51.796;5.808;2023-11-19T06:12:04;12.10;99.90
26803;DHT22;14378;51.796;5.808;2023-11-19T06:14:06;12.10;99.90
26803;DHT22;14378;51.796;5.808;2023-11-19T06:16:08;12.10;99.90
26803;DHT22;14378;51.796;5.808;2023-11-19T06:18:08;12.10;99.90
26803;DHT22;14378;51.796;5.808;2023-11-19T06:20:10;12.20;99.90
26803;DHT22;14378;51.796;5.808;2023-11-19T06:22:12;12.20;99.90
26803;DHT22;14378;51.796;5.808;2023-11-19T06:24:13;12.10;99.90
26803;DHT22;14378;51.796;5.808;2023-11-19T06:26:14;12.10;99.90
26803;DHT22;14378;51.796;5.808;2023-11-19T06:28:15;12.20;99.90
26803;DHT22;14378;51.796;5.808;2023-11-19T06:30:16;12.10;99.90
26803;DHT22;14378;51.796;5.808;2023-11-19T06:32:17;12.10;99.90
26803;DHT22;14378;51.796;5.808;2023-11-19T06:34:17;12.10;99.90
26803;DHT22;14378;51.796;5.808;2023-11-19T06:36:18;12.10;99.90
26803;DHT22;14378;51.796;5.808;2023-11-19T06:38:19;12.10;99.90
26803;DHT22;14378;51.796;5.808;2023-11-19T06:40:20;12.10;99.90
26803;DHT22;14378;51.796;5.808;2023-11-19T06:42:21;12.10;99.90
26803;DHT22;14378;51.796;5.808;2023-11-19T06:44:22;12.10;99.90
26803;DHT22;14378;51.796;5.808;2023-11-19T06:46:23;12.00;99.90
26803;DHT22;14378;51.796;5.808;2023-11-19T06:48:24;12.00;99.90
26803;DHT22;14378;51.796;5.808;2023-11-19T06:50:25;12.00;99.90
26803;DHT22;14378;51.796;5.808;2023-11-19T06:52:26;12.00;99.90
26803;DHT22;14378;51.796;5.808;2023-11-19T06:54:28;12.00;99.90
26803;DHT22;14378;51.796;5.808;2023-11-19T06:56:29;12.00;99.90
26803;DHT22;14378;51.796;5.808;2023-11-19T06:58:30;12.00;99.90
26803;DHT22;14378;51.796;5.808;2023-11-19T07:00:31;12.00;99.90
26803;DHT22;14378;51.796;5.808;2023-11-19T07:02:33;12.00;99.90
26803;DHT22;14378;51.796;5.808;2023-11-19T07:04:34;12.00;99.90
26803;DHT22;14378;51.796;5.808;2023-11-19T07:06:35;12.00;99.90
26803;DHT22;14378;51.796;5.808;2023-11-19T07:08:36;12.00;99.90
26803;DHT22;14378;51.796;5.808;2023-11-19T07:10:37;12.00;99.90
26803;DHT22;14378;51.796;5.808;2023-11-19T07:12:39;12.00;99.90
26803;DHT22;14378;51.796;5.808;2023-11-19T07:14:40;12.00;99.90
26803;DHT22;14378;51.796;5.808;2023-11-19T07:16:43;12.00;99.90
26803;DHT22;14378;51.796;5.808;2023-11-19T07:18:46;11.90;99.90
26803;DHT22;14378;51.796;5.808;2023-11-19T07:20:50;11.90;99.90
26803;DHT22;14378;51.796;5.808;2023-11-19T07:22:52;11.90;99.90
26803;DHT22;14378;51.796;5.808;2023-11-19T07:24:53;11.90;99.90
26803;DHT22;14378;51.796;5.808;2023-11-19T07:26:54;11.90;99.90
26803;DHT22;14378;51.796;5.808;2023-11-19T07:28:55;11.90;99.90
26803;DHT22;14378;51.796;5.808;2023-11-19T07:30:58;12.00;99.90
26803;DHT22;14378;51.796;5.808;2023-11-19T07:33:00;12.00;99.90
26803;DHT22;14378;51.796;5.808;2023-11-19T07:35:01;12.00;99.90
26803;DHT22;14378;51.796;5.808;2023-11-19T07:37:02;12.00;99.90
26803;DHT22;14378;51.796;5.808;2023-11-19T07:39:04;12.00;99.90
26803;DHT22;14378;51.796;5.808;2023-11-19T07:41:06;12.00;99.90
26803;DHT22;14378;51.796;5.808;2023-11-19T07:43:07;12.00;99.90
26803;DHT22;14378;51.796;5.808;2023-11-19T07:45:08;12.00;99.90
26803;DHT22;14378;51.796;5.808;2023-11-19T07:47:09;12.10;99.90
26803;DHT22;14378;51.796;5.808;2023-11-19T07:49:11;12.10;99.90
26803;DHT22;14378;51.796;5.808;2023-11-19T07:51:11;12.10;99.90
26803;DHT22;14378;51.796;5.808;2023-11-19T07:53:13;12.10;99.90
26803;DHT22;14378;51.796;5.808;2023-11-19T07:55:14;12.20;99.90
26803;DHT22;14378;51.796;5.808;2023-11-19T07:57:15;12.20;99.90
26803;DHT22;14378;51.796;5.808;2023-11-19T07:59:16;12.20;99.90
26803;DHT22;14378;51.796;5.808;2023-11-19T08:01:17;12.20;99.90
26803;DHT22;14378;51.796;5.808;2023-11-19T08:03:18;12.20;99.90
26803;DHT22;14378;51.796;5.808;2023-11-19T08:05:19;12.20;99.90
26803;DHT22;14378;51.796;5.808;2023-11-19T08:07:21;12.30;99.90
26803;DHT22;14378;51.796;5.808;2023-11-19T08:09:22;12.30;99.90
26803;DHT22;14378;51.796;5.808;2023-11-19T08:11:23;12.30;99.90
26803;DHT22;14378;51.796;5.808;2023-11-19T08:13:25;12.30;99.90
26803;DHT22;14378;51.796;5.808;2023-11-19T08:15:26;12.40;99.90
26803;DHT22;14378;51.796;5.808;2023-11-19T08:17:27;12.40;99.90
26803;DHT22;14378;51.796;5.808;2023-11-19T08:19:28;12.40;99.90
26803;DHT22;14378;51.796;5.808;2023-11-19T08:21:29;12.40;99.90
26803;DHT22;14378;51.796;5.808;2023-11-19T08:23:30;12.50;99.90
26803;DHT22;14378;51.796;5.808;2023-11-19T08:25:31;12.50;99.90
26803;DHT22;14378;51.796;5.808;2023-11-19T08:27:34;12.50;99.90
26803;DHT22;14378;51.796;5.808;2023-11-19T08:29:34;12.50;99.90
26803;DHT22;14378;51.796;5.808;2023-11-19T08:31:35;12.50;99.90
26803;DHT22;14378;51.796;5.808;2023-11-19T08:33:36;12.50;99.90
26803;DHT22;14378;51.796;5.808;2023-11-19T08:35:38;12.50;99.90
26803;DHT22;14378;51.796;5.808;2023-11-19T08:37:38;12.60;99.90
26803;DHT22;14378;51.796;5.808;2023-11-19T08:39:39;12.60;99.90
26803;DHT22;14378;51.796;5.808;2023-11-19T08:41:41;12.60;99.90
26803;DHT22;14378;51.796;5.808;2023-11-19T08:43:42;12.60;99.90
26803;DHT22;14378;51.796;5.808;2023-11-19T08:45:46;12.60;99.90
26803;DHT22;14378;51.796;5.808;2023-11-19T08:47:48;12.60;99.90
26803;DHT22;14378;51.796;5.808;2023-11-19T08:49:52;12.60;99.90
26803;DHT22;14378;51.796;5.808;2023-11-19T08:51:53;12.60;99.90
26803;DHT22;14378;51.796;5.808;2023-11-19T08:53:54;12.70;99.90
26803;DHT22;14378;51.796;5.808;2023-11-19T08:55:55;12.60;99.90
26803;DHT22;14378;51.796;5.808;2023-11-19T08:57:56;12.60;99.90
26803;DHT22;14378;51.796;5.808;2023-11-19T08:59:57;12.60;99.90
26803;DHT22;14378;51.796;5.808;2023-11-19T09:02:01;12.60;99.90
26803;DHT22;14378;51.796;5.808;2023-11-19T09:04:02;12.70;99.90
26803;DHT22;14378;51.796;5.808;2023-11-19T09:06:04;12.70;99.90
26803;DHT22;14378;51.796;5.808;2023-11-19T09:08:06;12.70;99.90
26803;DHT22;14378;51.796;5.808;2023-11-19T09:10:08;12.70;99.90
26803;DHT22;14378;51.796;5.808;2023-11-19T09:12:09;12.80;99.90
26803;DHT22;14378;51.796;5.808;2023-11-19T09:14:10;12.80;99.90
26803;DHT22;14378;51.796;5.808;2023-11-19T09:16:12;12.90;99.90
26803;DHT22;14378;51.796;5.808;2023-11-19T09:18:13;12.90;99.90
26803;DHT22;14378;51.796;5.808;2023-11-19T09:20:13;12.90;99.90
26803;DHT22;14378;51.796;5.808;2023-11-19T09:22:17;12.90;99.90
26803;DHT22;14378;51.796;5.808;2023-11-19T09:24:18;12.80;99.90
26803;DHT22;14378;51.796;5.808;2023-11-19T09:26:22;12.80;99.90
26803;DHT22;14378;51.796;5.808;2023-11-19T09:28:23;12.90;99.90
26803;DHT22;14378;51.796;5.808;2023-11-19T09:30:24;12.90;99.90
26803;DHT22;14378;51.796;5.808;2023-11-19T09:32:25;12.90;99.90
26803;DHT22;14378;51.796;5.808;2023-11-19T09:34:26;12.90;99.90
26803;DHT22;14378;51.796;5.808;2023-11-19T09:36:27;12.90;99.90
26803;DHT22;14378;51.796;5.808;2023-11-19T09:38:28;12.90;99.90
26803;DHT22;14378;51.796;5.808;2023-11-19T09:40:28;12.90;99.90
26803;DHT22;14378;51.796;5.808;2023-11-19T09:42:34;12.90;99.90
26803;DHT22;14378;51.796;5.808;2023-11-19T09:44:39;13.00;99.90
26803;DHT22;14378;51.796;5.808;2023-11-19T09:46:43;13.00;99.90
26803;DHT22;14378;51.796;5.808;2023-11-19T09:48:48;13.00;99.90
26803;DHT22;14378;51.796;5.808;2023-11-19T09:50:56;13.10;99.90
26803;DHT22;14378;51.796;5.808;2023-11-19T09:52:58;13.10;99.90
26803;DHT22;14378;51.796;5.808;2023-11-19T09:54:59;13.20;99.90
26803;DHT22;14378;51.796;5.808;2023-11-19T09:57:02;13.30;99.90
26803;DHT22;14378;51.796;5.808;2023-11-19T09:59:06;13.40;99.90
26803;DHT22;14378;51.796;5.808;2023-11-19T10:01:07;13.50;99.90
26803;DHT22;14378;51.796;5.808;2023-11-19T10:03:11;13.60;99.90
26803;DHT22;14378;51.796;5.808;2023-11-19T10:05:14;13.60;99.90
26803;DHT22;14378;51.796;5.808;2023-11-19T10:07:16;13.50;99.90
26803;DHT22;14378;51.796;5.808;2023-11-19T10:09:16;13.50;99.90
26803;DHT22;14378;51.796;5.808;2023-11-19T10:11:18;13.60;99.90
26803;DHT22;14378;51.796;5.808;2023-11-19T10:13:18;13.60;99.90
26803;DHT22;14378;51.796;5.808;2023-11-19T10:15:24;13.60;99.90
26803;DHT22;14378;51.796;5.808;2023-11-19T10:17:42;13.60;99.90
26803;DHT22;14378;51.796;5.808;2023-11-19T10:19:43;13.60;99.90
26803;DHT22;14378;51.796;5.808;2023-11-19T10:21:46;13.70;99.90
26803;DHT22;14378;51.796;5.808;2023-11-19T10:23:53;13.70;99.90
26803;DHT22;14378;51.796;5.808;2023-11-19T10:26:02;13.80;99.90
26803;DHT22;14378;51.796;5.808;2023-11-19T10:28:05;13.80;99.90
26803;DHT22;14378;51.796;5.808;2023-11-19T10:30:06;13.80;99.90
26803;DHT22;14378;51.796;5.808;2023-11-19T10:32:08;13.90;99.90
26803;DHT22;14378;51.796;5.808;2023-11-19T10:34:25;13.90;99.90
26803;DHT22;14378;51.796;5.808;2023-11-19T10:36:39;13.80;99.90
26803;DHT22;14378;51.796;5.808;2023-11-19T10:38:55;13.80;99.90
26803;DHT22;14378;51.796;5.808;2023-11-19T10:40:56;13.80;99.90
26803;DHT22;14378;51.796;5.808;2023-11-19T10:43:03;13.80;99.90
26803;DHT22;14378;51.796;5.808;2023-11-19T10:45:05;13.70;99.90
26803;DHT22;14378;51.796;5.808;2023-11-19T10:47:18;13.70;99.90
26803;DHT22;14378;51.796;5.808;2023-11-19T10:49:20;13.70;99.90
26803;DHT22;14378;51.796;5.808;2023-11-19T10:51:21;13.80;99.90
26803;DHT22;14378;51.796;5.808;2023-11-19T10:53:23;13.80;99.90
26803;DHT22;14378;51.796;5.808;2023-11-19T10:55:36;13.90;99.90
26803;DHT22;14378;51.796;5.808;2023-11-19T10:57:43;13.80;99.90
26803;DHT22;14378;51.796;5.808;2023-11-19T10:59:45;13.90;99.90
26803;DHT22;14378;51.796;5.808;2023-11-19T11:01:48;14.00;99.90
26803;DHT22;14378;51.796;5.808;2023-11-19T11:03:51;14.10;99.90
26803;DHT22;14378;51.796;5.808;2023-11-19T11:05:55;14.20;99.90
26803;DHT22;14378;51.796;5.808;2023-11-19T11:08:00;14.30;99.90
26803;DHT22;14378;51.796;5.808;2023-11-19T11:10:02;14.30;99.90
26803;DHT22;14378;51.796;5.808;2023-11-19T11:12:06;14.30;99.90
26803;DHT22;14378;51.796;5.808;2023-11-19T11:14:08;14.30;99.90
26803;DHT22;14378;51.796;5.808;2023-11-19T11:16:10;14.40;99.90
26803;DHT22;14378;51.796;5.808;2023-11-19T11:18:12;14.40;99.90
26803;DHT22;14378;51.796;5.808;2023-11-19T11:20:13;14.50;99.90
26803;DHT22;14378;51.796;5.808;2023-11-19T11:22:16;14.50;99.90
26803;DHT22;14378;51.796;5.808;2023-11-19T11:29:16;14.60;99.90
26803;DHT22;14378;51.796;5.808;2023-11-19T11:31:38;14.70;99.90
26803;DHT22;14378;51.796;5.808;2023-11-19T11:34:15;14.70;99.90
26803;DHT22;14378;51.796;5.808;2023-11-19T11:36:21;14.80;99.90
26803;DHT22;14378;51.796;5.808;2023-11-19T11:38:23;14.90;99.90
26803;DHT22;14378;51.796;5.808;2023-11-19T11:40:24;14.90;99.90
26803;DHT22;14378;51.796;5.808;2023-11-19T11:47:05;14.70;99.90
26803;DHT22;14378;51.796;5.808;2023-11-19T11:49:07;14.70;99.90
26803;DHT22;14378;51.796;5.808;2023-11-19T11:51:08;14.60;99.90
26803;DHT22;14378;51.796;5.808;2023-11-19T11:53:22;14.60;99.90
26803;DHT22;14378;51.796;5.808;2023-11-19T11:57:36;14.50;99.90
26803;DHT22;14378;51.796;5.808;2023-11-19T12:02:00;14.50;99.90
26803;DHT22;14378;51.796;5.808;2023-11-19T12:04:01;14.50;99.90
26803;DHT22;14378;51.796;5.808;2023-11-19T12:06:03;14.40;99.90
26803;DHT22;14378;51.796;5.808;2023-11-19T12:08:05;14.40;99.90
26803;DHT22;14378;51.796;5.808;2023-11-19T12:10:11;14.40;99.90
26803;DHT22;14378;51.796;5.808;2023-11-19T12:12:18;14.40;99.90
26803;DHT22;14378;51.796;5.808;2023-11-19T12:17:13;14.30;99.90
26803;DHT22;14378;51.796;5.808;2023-11-19T12:19:25;14.30;99.90
26803;DHT22;14378;51.796;5.808;2023-11-19T12:21:30;14.30;99.90
26803;DHT22;14378;51.796;5.808;2023-11-19T12:23:32;14.40;99.90
26803;DHT22;14378;51.796;5.808;2023-11-19T12:25:34;14.60;99.90
26803;DHT22;14378;51.796;5.808;2023-11-19T12:27:36;14.70;99.90
26803;DHT22;14378;51.796;5.808;2023-11-19T12:29:43;14.80;99.90
26803;DHT22;14378;51.796;5.808;2023-11-19T12:31:45;14.90;99.90
26803;DHT22;14378;51.796;5.808;2023-11-19T12:33:54;15.00;99.90
26803;DHT22;14378;51.796;5.808;2023-11-19T12:35:55;15.00;99.90
26803;DHT22;14378;51.796;5.808;2023-11-19T12:37:56;15.00;99.90
26803;DHT22;14378;51.796;5.808;2023-11-19T12:39:57;15.00;99.90
26803;DHT22;14378;51.796;5.808;2023-11-19T12:41:59;15.00;99.90
26803;DHT22;14378;51.796;5.808;2023-11-19T12:44:10;15.10;99.90
26803;DHT22;14378;51.796;5.808;2023-11-19T12:46:21;15.10;99.90
26803;DHT22;14378;51.796;5.808;2023-11-19T12:48:23;15.20;99.90
26803;DHT22;14378;51.796;5.808;2023-11-19T12:50:24;15.20;99.90
26803;DHT22;14378;51.796;5.808;2023-11-19T12:52:25;15.10;99.90
26803;DHT22;14378;51.796;5.808;2023-11-19T12:54:36;15.10;99.90
26803;DHT22;14378;51.796;5.808;2023-11-19T12:56:37;15.10;99.90
26803;DHT22;14378;51.796;5.808;2023-11-19T12:58:38;15.10;99.90
26803;DHT22;14378;51.796;5.808;2023-11-19T13:00:39;15.10;99.90
26803;DHT22;14378;51.796;5.808;2023-11-19T13:02:54;15.10;99.90
26803;DHT22;14378;51.796;5.808;2023-11-19T13:04:55;15.00;99.90
26803;DHT22;14378;51.796;5.808;2023-11-19T13:07:00;15.00;99.90
26803;DHT22;14378;51.796;5.808;2023-11-19T13:09:01;15.00;99.90